Terminal Aerodrome Forecast
Issued by NWS

Home | Current Version | Previous Version | Text Only | Print | Product List | Glossary Off
Versions: 1 2 3 4 5 6 7 8 9 10 11 12 13 14 15 16 17 18 19 20

000
FTUS43 KBIS 210521
TAFMOT
TAF
KMOT 210521Z 2106/2206 18005KT P6SM FEW070 SCT120
     FM211600 22012KT P6SM SCT100
     FM220100 17008KT P6SM SKC=

USA.gov is the U.S. government's official web portal to all federal, state and local government web resources and services.